sensor_id;sensor_type;location;lat;lon;timestamp;pressure;altitude;pressure_sealevel;temperature;humidity
13705;BME280;6924;52.122;9.952;2023-05-06T00:02:20;100560.41;;;12.89;100.00
13705;BME280;6924;52.122;9.952;2023-05-06T00:04:47;100546.91;;;12.86;100.00
13705;BME280;6924;52.122;9.952;2023-05-06T00:07:13;100554.22;;;12.78;100.00
13705;BME280;6924;52.122;9.952;2023-05-06T00:09:41;100553.38;;;12.77;100.00
13705;BME280;6924;52.122;9.952;2023-05-06T00:12:07;100551.53;;;12.73;100.00
13705;BME280;6924;52.122;9.952;2023-05-06T00:14:34;100551.34;;;12.69;100.00
13705;BME280;6924;52.122;9.952;2023-05-06T00:17:01;100557.38;;;12.68;100.00
13705;BME280;6924;52.122;9.952;2023-05-06T00:19:28;100547.00;;;12.63;100.00
13705;BME280;6924;52.122;9.952;2023-05-06T00:21:54;100551.69;;;12.59;100.00
13705;BME280;6924;52.122;9.952;2023-05-06T00:24:21;100550.00;;;12.58;100.00
13705;BME280;6924;52.122;9.952;2023-05-06T00:26:47;100550.81;;;12.58;100.00
13705;BME280;6924;52.122;9.952;2023-05-06T00:29:14;100550.97;;;12.53;100.00
13705;BME280;6924;52.122;9.952;2023-05-06T00:31:40;100549.63;;;12.51;100.00
13705;BME280;6924;52.122;9.952;2023-05-06T00:34:08;100549.44;;;12.47;100.00
13705;BME280;6924;52.122;9.952;2023-05-06T00:36:35;100551.44;;;12.47;100.00
13705;BME280;6924;52.122;9.952;2023-05-06T00:39:02;100557.81;;;12.52;100.00
13705;BME280;6924;52.122;9.952;2023-05-06T00:41:30;100555.31;;;12.51;100.00
13705;BME280;6924;52.122;9.952;2023-05-06T00:43:56;100560.31;;;12.54;100.00
13705;BME280;6924;52.122;9.952;2023-05-06T00:46:23;100571.66;;;12.54;100.00
13705;BME280;6924;52.122;9.952;2023-05-06T00:48:50;100567.84;;;12.58;100.00
13705;BME280;6924;52.122;9.952;2023-05-06T00:51:18;100566.34;;;12.52;100.00
13705;BME280;6924;52.122;9.952;2023-05-06T00:53:44;100566.00;;;12.54;100.00
13705;BME280;6924;52.122;9.952;2023-05-06T00:56:12;100569.19;;;12.61;100.00
13705;BME280;6924;52.122;9.952;2023-05-06T00:58:38;100568.84;;;12.63;100.00
13705;BME280;6924;52.122;9.952;2023-05-06T01:01:05;100575.22;;;12.68;100.00
13705;BME280;6924;52.122;9.952;2023-05-06T01:03:32;100579.09;;;12.72;100.00
13705;BME280;6924;52.122;9.952;2023-05-06T01:06:06;100563.72;;;12.73;100.00
13705;BME280;6924;52.122;9.952;2023-05-06T01:08:41;100568.56;;;12.73;100.00
13705;BME280;6924;52.122;9.952;2023-05-06T01:11:12;100567.22;;;12.70;100.00
13705;BME280;6924;52.122;9.952;2023-05-06T01:13:45;100567.38;;;12.74;100.00
13705;BME280;6924;52.122;9.952;2023-05-06T01:16:13;100567.53;;;12.69;100.00
13705;BME280;6924;52.122;9.952;2023-05-06T01:18:41;100571.72;;;12.71;100.00
13705;BME280;6924;52.122;9.952;2023-05-06T01:21:10;100566.03;;;12.71;100.00
13705;BME280;6924;52.122;9.952;2023-05-06T01:23:51;100571.91;;;12.75;100.00
13705;BME280;6924;52.122;9.952;2023-05-06T01:26:17;100572.56;;;12.72;100.00
13705;BME280;6924;52.122;9.952;2023-05-06T01:28:44;100573.41;;;12.72;100.00
13705;BME280;6924;52.122;9.952;2023-05-06T01:31:12;100573.56;;;12.76;100.00
13705;BME280;6924;52.122;9.952;2023-05-06T01:33:45;100576.25;;;12.72;100.00
13705;BME280;6924;52.122;9.952;2023-05-06T01:36:18;100575.56;;;12.67;100.00
13705;BME280;6924;52.122;9.952;2023-05-06T01:38:54;100579.53;;;12.57;100.00
13705;BME280;6924;52.122;9.952;2023-05-06T01:41:24;100580.38;;;12.57;100.00
13705;BME280;6924;52.122;9.952;2023-05-06T01:43:51;100585.06;;;12.62;100.00
13705;BME280;6924;52.122;9.952;2023-05-06T01:46:19;100575.34;;;12.63;100.00
13705;BME280;6924;52.122;9.952;2023-05-06T01:48:49;100577.88;;;12.65;100.00
13705;BME280;6924;52.122;9.952;2023-05-06T01:51:19;100569.34;;;12.56;100.00
13705;BME280;6924;52.122;9.952;2023-05-06T01:53:46;100579.38;;;12.62;100.00
13705;BME280;6924;52.122;9.952;2023-05-06T01:56:14;100588.69;;;12.54;100.00
13705;BME280;6924;52.122;9.952;2023-05-06T01:58:41;100587.69;;;12.58;100.00
13705;BME280;6924;52.122;9.952;2023-05-06T02:01:07;100578.03;;;12.59;100.00
13705;BME280;6924;52.122;9.952;2023-05-06T02:03:33;100582.38;;;12.57;100.00
13705;BME280;6924;52.122;9.952;2023-05-06T02:06:01;100572.69;;;12.58;100.00
13705;BME280;6924;52.122;9.952;2023-05-06T02:08:27;100567.84;;;12.58;100.00
13705;BME280;6924;52.122;9.952;2023-05-06T02:10:54;100576.16;;;12.46;100.00
13705;BME280;6924;52.122;9.952;2023-05-06T02:13:22;100568.97;;;12.49;100.00
13705;BME280;6924;52.122;9.952;2023-05-06T02:15:51;100571.31;;;12.47;100.00
13705;BME280;6924;52.122;9.952;2023-05-06T02:18:17;100578.16;;;12.46;100.00
13705;BME280;6924;52.122;9.952;2023-05-06T02:20:44;100581.00;;;12.46;100.00
13705;BME280;6924;52.122;9.952;2023-05-06T02:23:10;100579.31;;;12.45;100.00
13705;BME280;6924;52.122;9.952;2023-05-06T02:25:37;100582.31;;;12.39;100.00
13705;BME280;6924;52.122;9.952;2023-05-06T02:28:03;100577.25;;;12.36;100.00
13705;BME280;6924;52.122;9.952;2023-05-06T02:30:31;100576.94;;;12.38;100.00
13705;BME280;6924;52.122;9.952;2023-05-06T02:32:58;100573.78;;;12.39;100.00
13705;BME280;6924;52.122;9.952;2023-05-06T02:35:25;100586.28;;;12.38;100.00
13705;BME280;6924;52.122;9.952;2023-05-06T02:37:51;100579.06;;;12.32;100.00
13705;BME280;6924;52.122;9.952;2023-05-06T02:40:17;100577.09;;;12.33;100.00
13705;BME280;6924;52.122;9.952;2023-05-06T02:42:44;100566.38;;;12.30;100.00
13705;BME280;6924;52.122;9.952;2023-05-06T02:45:10;100570.91;;;12.31;100.00
13705;BME280;6924;52.122;9.952;2023-05-06T02:47:38;100576.59;;;12.31;100.00
13705;BME280;6924;52.122;9.952;2023-05-06T02:50:05;100574.06;;;12.29;100.00
13705;BME280;6924;52.122;9.952;2023-05-06T02:52:32;100578.59;;;12.30;100.00
13705;BME280;6924;52.122;9.952;2023-05-06T02:54:59;100573.41;;;12.32;100.00
13705;BME280;6924;52.122;9.952;2023-05-06T02:57:26;100571.75;;;12.31;100.00
13705;BME280;6924;52.122;9.952;2023-05-06T02:59:52;100575.09;;;12.33;100.00
13705;BME280;6924;52.122;9.952;2023-05-06T03:02:18;100583.59;;;12.33;100.00
13705;BME280;6924;52.122;9.952;2023-05-06T03:04:46;100577.22;;;12.28;100.00
13705;BME280;6924;52.122;9.952;2023-05-06T03:07:12;100573.56;;;12.27;100.00
13705;BME280;6924;52.122;9.952;2023-05-06T03:09:39;100577.56;;;12.26;100.00
13705;BME280;6924;52.122;9.952;2023-05-06T03:12:05;100573.72;;;12.22;100.00
13705;BME280;6924;52.122;9.952;2023-05-06T03:14:32;100569.53;;;12.19;100.00
13705;BME280;6924;52.122;9.952;2023-05-06T03:16:58;100563.84;;;12.19;100.00
13705;BME280;6924;52.122;9.952;2023-05-06T03:19:25;100565.84;;;12.19;100.00
13705;BME280;6924;52.122;9.952;2023-05-06T03:21:52;100569.53;;;12.19;100.00
13705;BME280;6924;52.122;9.952;2023-05-06T03:24:19;100578.03;;;12.19;100.00
13705;BME280;6924;52.122;9.952;2023-05-06T03:26:45;100578.03;;;12.19;100.00
13705;BME280;6924;52.122;9.952;2023-05-06T03:29:12;100583.50;;;12.16;100.00
13705;BME280;6924;52.122;9.952;2023-05-06T03:31:38;100569.66;;;12.14;100.00
13705;BME280;6924;52.122;9.952;2023-05-06T03:34:04;100578.16;;;12.14;100.00
13705;BME280;6924;52.122;9.952;2023-05-06T03:36:31;100588.16;;;12.12;100.00
13705;BME280;6924;52.122;9.952;2023-05-06T03:38:59;100586.81;;;12.09;100.00
13705;BME280;6924;52.122;9.952;2023-05-06T03:41:25;100586.81;;;12.09;100.00
13705;BME280;6924;52.122;9.952;2023-05-06T03:43:52;100594.59;;;12.04;100.00
13705;BME280;6924;52.122;9.952;2023-05-06T03:46:19;100588.44;;;12.02;100.00
13705;BME280;6924;52.122;9.952;2023-05-06T03:48:46;100593.59;;;11.99;100.00
13705;BME280;6924;52.122;9.952;2023-05-06T03:51:12;100588.56;;;11.96;100.00
13705;BME280;6924;52.122;9.952;2023-05-06T03:53:39;100586.19;;;11.90;100.00
13705;BME280;6924;52.122;9.952;2023-05-06T03:56:07;100593.31;;;11.87;100.00
13705;BME280;6924;52.122;9.952;2023-05-06T03:58:34;100590.63;;;11.82;100.00
13705;BME280;6924;52.122;9.952;2023-05-06T04:01:00;100583.91;;;11.78;100.00
13705;BME280;6924;52.122;9.952;2023-05-06T04:03:27;100593.25;;;11.78;100.00
13705;BME280;6924;52.122;9.952;2023-05-06T04:05:53;100589.06;;;11.76;100.00
13705;BME280;6924;52.122;9.952;2023-05-06T04:08:19;100594.34;;;11.69;100.00
13705;BME280;6924;52.122;9.952;2023-05-06T04:10:46;100588.47;;;11.65;100.00
13705;BME280;6924;52.122;9.952;2023-05-06T04:13:14;100595.13;;;11.61;100.00
13705;BME280;6924;52.122;9.952;2023-05-06T04:15:41;100600.25;;;11.58;100.00
13705;BME280;6924;52.122;9.952;2023-05-06T04:18:08;100595.56;;;11.54;100.00
13705;BME280;6924;52.122;9.952;2023-05-06T04:20:34;100606.50;;;11.47;100.00
13705;BME280;6924;52.122;9.952;2023-05-06T04:23:01;100607.47;;;11.42;100.00
13705;BME280;6924;52.122;9.952;2023-05-06T04:25:27;100603.59;;;11.38;100.00
13705;BME280;6924;52.122;9.952;2023-05-06T04:27:54;100609.38;;;11.33;100.00
13705;BME280;6924;52.122;9.952;2023-05-06T04:30:21;100606.97;;;11.26;100.00
13705;BME280;6924;52.122;9.952;2023-05-06T04:32:48;100608.66;;;11.27;100.00
13705;BME280;6924;52.122;9.952;2023-05-06T04:35:14;100624.81;;;11.27;100.00
13705;BME280;6924;52.122;9.952;2023-05-06T04:37:41;100621.97;;;11.27;100.00
13705;BME280;6924;52.122;9.952;2023-05-06T04:40:08;100611.81;;;11.26;100.00
13705;BME280;6924;52.122;9.952;2023-05-06T04:42:35;100625.13;;;11.25;100.00
13705;BME280;6924;52.122;9.952;2023-05-06T04:45:02;100616.31;;;11.27;100.00
13705;BME280;6924;52.122;9.952;2023-05-06T04:47:31;100619.69;;;11.29;100.00
13705;BME280;6924;52.122;9.952;2023-05-06T04:49:57;100623.34;;;11.29;100.00
13705;BME280;6924;52.122;9.952;2023-05-06T04:52:23;100631.50;;;11.31;100.00
13705;BME280;6924;52.122;9.952;2023-05-06T04:54:50;100623.53;;;11.33;100.00
13705;BME280;6924;52.122;9.952;2023-05-06T04:57:16;100634.84;;;11.33;100.00
13705;BME280;6924;52.122;9.952;2023-05-06T04:59:43;100637.06;;;11.36;100.00
13705;BME280;6924;52.122;9.952;2023-05-06T05:02:09;100630.22;;;11.37;100.00
13705;BME280;6924;52.122;9.952;2023-05-06T05:04:37;100632.44;;;11.40;100.00
13705;BME280;6924;52.122;9.952;2023-05-06T05:07:03;100633.78;;;11.43;100.00
13705;BME280;6924;52.122;9.952;2023-05-06T05:09:32;100634.63;;;11.43;100.00
13705;BME280;6924;52.122;9.952;2023-05-06T05:12:00;100632.31;;;11.45;100.00
13705;BME280;6924;52.122;9.952;2023-05-06T05:14:26;100628.66;;;11.45;100.00
13705;BME280;6924;52.122;9.952;2023-05-06T05:16:53;100627.69;;;11.49;100.00
13705;BME280;6924;52.122;9.952;2023-05-06T05:19:19;100633.03;;;11.51;100.00
13705;BME280;6924;52.122;9.952;2023-05-06T05:21:47;100620.53;;;11.52;100.00
13705;BME280;6924;52.122;9.952;2023-05-06T05:24:13;100623.88;;;11.54;100.00
13705;BME280;6924;52.122;9.952;2023-05-06T05:26:40;100632.38;;;11.54;100.00
13705;BME280;6924;52.122;9.952;2023-05-06T05:29:06;100639.09;;;11.58;100.00
13705;BME280;6924;52.122;9.952;2023-05-06T05:31:33;100645.28;;;11.60;100.00
13705;BME280;6924;52.122;9.952;2023-05-06T05:34:00;100640.97;;;11.63;100.00
13705;BME280;6924;52.122;9.952;2023-05-06T05:36:26;100645.47;;;11.64;100.00
13705;BME280;6924;52.122;9.952;2023-05-06T05:38:54;100647.47;;;11.63;100.00
13705;BME280;6924;52.122;9.952;2023-05-06T05:41:20;100654.09;;;11.58;100.00
13705;BME280;6924;52.122;9.952;2023-05-06T05:43:47;100664.25;;;11.59;100.00
13705;BME280;6924;52.122;9.952;2023-05-06T05:46:14;100666.97;;;11.65;100.00
13705;BME280;6924;52.122;9.952;2023-05-06T05:48:40;100660.66;;;11.68;100.00
13705;BME280;6924;52.122;9.952;2023-05-06T05:51:08;100665.38;;;11.72;100.00
13705;BME280;6924;52.122;9.952;2023-05-06T05:53:35;100662.94;;;11.79;100.00
13705;BME280;6924;52.122;9.952;2023-05-06T05:56:03;100656.63;;;11.83;100.00
13705;BME280;6924;52.122;9.952;2023-05-06T05:58:30;100658.81;;;11.86;100.00
13705;BME280;6924;52.122;9.952;2023-05-06T06:00:56;100664.06;;;11.92;100.00
13705;BME280;6924;52.122;9.952;2023-05-06T06:03:23;100667.41;;;11.94;100.00
13705;BME280;6924;52.122;9.952;2023-05-06T06:05:49;100668.44;;;11.98;100.00
13705;BME280;6924;52.122;9.952;2023-05-06T06:08:17;100669.28;;;11.99;100.00
13705;BME280;6924;52.122;9.952;2023-05-06T06:10:43;100674.50;;;12.06;100.00
13705;BME280;6924;52.122;9.952;2023-05-06T06:13:11;100669.34;;;12.08;100.00
13705;BME280;6924;52.122;9.952;2023-05-06T06:15:39;100673.94;;;12.17;100.00
13705;BME280;6924;52.122;9.952;2023-05-06T06:18:05;100675.59;;;12.18;100.00
13705;BME280;6924;52.122;9.952;2023-05-06T06:20:32;100677.13;;;12.25;100.00
13705;BME280;6924;52.122;9.952;2023-05-06T06:22:59;100671.03;;;12.09;100.00
13705;BME280;6924;52.122;9.952;2023-05-06T06:25:25;100672.75;;;12.18;100.00
13705;BME280;6924;52.122;9.952;2023-05-06T06:27:53;100677.38;;;12.14;100.00
13705;BME280;6924;52.122;9.952;2023-05-06T06:30:21;100669.28;;;12.22;100.00
13705;BME280;6924;52.122;9.952;2023-05-06T06:32:48;100687.09;;;12.45;100.00
13705;BME280;6924;52.122;9.952;2023-05-06T06:35:15;100687.63;;;12.47;100.00
13705;BME280;6924;52.122;9.952;2023-05-06T06:37:42;100683.66;;;12.56;100.00
13705;BME280;6924;52.122;9.952;2023-05-06T06:40:09;100674.72;;;12.72;100.00
13705;BME280;6924;52.122;9.952;2023-05-06T06:42:36;100679.06;;;12.69;100.00
13705;BME280;6924;52.122;9.952;2023-05-06T06:45:03;100683.50;;;12.53;100.00
13705;BME280;6924;52.122;9.952;2023-05-06T06:47:31;100682.50;;;12.26;100.00
13705;BME280;6924;52.122;9.952;2023-05-06T06:49:58;100690.94;;;12.17;100.00
13705;BME280;6924;52.122;9.952;2023-05-06T06:52:24;100692.53;;;12.32;100.00
13705;BME280;6924;52.122;9.952;2023-05-06T06:54:50;100697.44;;;12.40;100.00
13705;BME280;6924;52.122;9.952;2023-05-06T06:57:17;100700.88;;;12.60;100.00
13705;BME280;6924;52.122;9.952;2023-05-06T06:59:43;100707.72;;;12.59;100.00
13705;BME280;6924;52.122;9.952;2023-05-06T07:02:11;100713.75;;;12.35;100.00
13705;BME280;6924;52.122;9.952;2023-05-06T07:04:39;100707.63;;;12.19;100.00
13705;BME280;6924;52.122;9.952;2023-05-06T07:07:06;100706.41;;;12.11;100.00
13705;BME280;6924;52.122;9.952;2023-05-06T07:09:32;100714.00;;;12.02;100.00
13705;BME280;6924;52.122;9.952;2023-05-06T07:11:59;100714.00;;;12.02;100.00
13705;BME280;6924;52.122;9.952;2023-05-06T07:14:26;100712.91;;;12.12;100.00
13705;BME280;6924;52.122;9.952;2023-05-06T07:16:52;100724.75;;;12.14;100.00
13705;BME280;6924;52.122;9.952;2023-05-06T07:19:18;100716.25;;;12.14;100.00
13705;BME280;6924;52.122;9.952;2023-05-06T07:21:47;100720.78;;;12.15;100.00
13705;BME280;6924;52.122;9.952;2023-05-06T07:24:13;100719.75;;;12.33;100.00
13705;BME280;6924;52.122;9.952;2023-05-06T07:26:40;100723.09;;;12.35;100.00
13705;BME280;6924;52.122;9.952;2023-05-06T07:29:06;100731.69;;;12.22;100.00
13705;BME280;6924;52.122;9.952;2023-05-06T07:31:32;100736.25;;;12.31;100.00
13705;BME280;6924;52.122;9.952;2023-05-06T07:33:59;100736.75;;;12.33;100.00
13705;BME280;6924;52.122;9.952;2023-05-06T07:36:25;100732.13;;;12.37;100.00
13705;BME280;6924;52.122;9.952;2023-05-06T07:38:54;100735.28;;;12.36;100.00
13705;BME280;6924;52.122;9.952;2023-05-06T07:41:20;100737.41;;;12.53;100.00
13705;BME280;6924;52.122;9.952;2023-05-06T07:43:47;100743.13;;;12.61;100.00
13705;BME280;6924;52.122;9.952;2023-05-06T07:46:13;100745.63;;;12.63;100.00
13705;BME280;6924;52.122;9.952;2023-05-06T07:48:39;100743.25;;;12.56;100.00
13705;BME280;6924;52.122;9.952;2023-05-06T07:51:06;100746.03;;;12.48;100.00
13705;BME280;6924;52.122;9.952;2023-05-06T07:53:32;100744.16;;;12.66;100.00
13705;BME280;6924;52.122;9.952;2023-05-06T07:56:01;100747.69;;;12.71;100.00
13705;BME280;6924;52.122;9.952;2023-05-06T07:58:28;100740.09;;;12.89;100.00
13705;BME280;6924;52.122;9.952;2023-05-06T08:00:55;100745.25;;;13.18;100.00
13705;BME280;6924;52.122;9.952;2023-05-06T08:03:21;100747.22;;;13.18;100.00
13705;BME280;6924;52.122;9.952;2023-05-06T08:05:48;100745.56;;;13.17;100.00
13705;BME280;6924;52.122;9.952;2023-05-06T08:08:15;100753.28;;;13.25;100.00
13705;BME280;6924;52.122;9.952;2023-05-06T08:10:42;100751.94;;;13.22;100.00
13705;BME280;6924;52.122;9.952;2023-05-06T08:13:10;100751.41;;;13.20;100.00
13705;BME280;6924;52.122;9.952;2023-05-06T08:15:36;100764.22;;;13.32;100.00
13705;BME280;6924;52.122;9.952;2023-05-06T08:18:03;100770.09;;;13.44;100.00
13705;BME280;6924;52.122;9.952;2023-05-06T08:20:30;100768.97;;;13.54;100.00
13705;BME280;6924;52.122;9.952;2023-05-06T08:22:56;100768.47;;;13.52;100.00
13705;BME280;6924;52.122;9.952;2023-05-06T08:25:24;100759.91;;;13.43;99.66
13705;BME280;6924;52.122;9.952;2023-05-06T08:27:51;100759.56;;;13.53;100.00
13705;BME280;6924;52.122;9.952;2023-05-06T08:30:18;100759.75;;;13.57;100.00
13705;BME280;6924;52.122;9.952;2023-05-06T08:32:45;100759.59;;;13.62;100.00
13705;BME280;6924;52.122;9.952;2023-05-06T08:35:11;100760.47;;;13.80;99.66
13705;BME280;6924;52.122;9.952;2023-05-06T08:37:39;100763.19;;;13.94;100.00
13705;BME280;6924;52.122;9.952;2023-05-06T08:40:15;100768.69;;;13.99;100.00
13705;BME280;6924;52.122;9.952;2023-05-06T08:42:44;100760.69;;;14.10;95.62
13705;BME280;6924;52.122;9.952;2023-05-06T08:45:11;100765.38;;;14.23;93.48
13705;BME280;6924;52.122;9.952;2023-05-06T08:47:39;100769.69;;;13.94;95.04
13705;BME280;6924;52.122;9.952;2023-05-06T08:50:07;100764.84;;;14.03;96.28
13705;BME280;6924;52.122;9.952;2023-05-06T08:52:34;100765.03;;;14.16;97.40
13705;BME280;6924;52.122;9.952;2023-05-06T08:55:02;100770.34;;;14.00;93.22
13705;BME280;6924;52.122;9.952;2023-05-06T08:57:29;100774.19;;;13.87;90.85
13705;BME280;6924;52.122;9.952;2023-05-06T08:59:57;100776.91;;;14.00;96.69
13705;BME280;6924;52.122;9.952;2023-05-06T09:02:24;100772.72;;;14.15;93.03
13705;BME280;6924;52.122;9.952;2023-05-06T09:04:52;100768.38;;;14.35;92.80
13705;BME280;6924;52.122;9.952;2023-05-06T09:07:19;100767.38;;;14.49;89.85
13705;BME280;6924;52.122;9.952;2023-05-06T09:09:47;100764.84;;;14.47;91.56
13705;BME280;6924;52.122;9.952;2023-05-06T09:12:14;100774.75;;;14.58;90.36
13705;BME280;6924;52.122;9.952;2023-05-06T09:14:41;100769.84;;;14.76;89.66
13705;BME280;6924;52.122;9.952;2023-05-06T09:17:16;100771.16;;;14.87;90.18
13705;BME280;6924;52.122;9.952;2023-05-06T09:19:47;100767.66;;;14.91;88.26
13705;BME280;6924;52.122;9.952;2023-05-06T09:22:15;100769.34;;;14.83;86.49
13705;BME280;6924;52.122;9.952;2023-05-06T09:24:42;100773.31;;;14.99;87.82
13705;BME280;6924;52.122;9.952;2023-05-06T09:27:09;100764.44;;;14.92;87.49
13705;BME280;6924;52.122;9.952;2023-05-06T09:29:36;100770.91;;;15.10;88.73
13705;BME280;6924;52.122;9.952;2023-05-06T09:32:03;100758.41;;;15.32;87.85
13705;BME280;6924;52.122;9.952;2023-05-06T09:34:33;100763.75;;;15.42;85.91
13705;BME280;6924;52.122;9.952;2023-05-06T09:36:59;100765.66;;;15.29;83.15
13705;BME280;6924;52.122;9.952;2023-05-06T09:39:27;100770.75;;;15.15;83.37
13705;BME280;6924;52.122;9.952;2023-05-06T09:41:54;100774.94;;;15.18;86.37
13705;BME280;6924;52.122;9.952;2023-05-06T09:44:20;100767.16;;;15.27;84.51
13705;BME280;6924;52.122;9.952;2023-05-06T09:46:48;100772.63;;;15.02;84.64
13705;BME280;6924;52.122;9.952;2023-05-06T09:49:16;100768.41;;;15.17;86.92
13705;BME280;6924;52.122;9.952;2023-05-06T09:51:43;100767.91;;;15.15;86.60
13705;BME280;6924;52.122;9.952;2023-05-06T09:54:12;100775.28;;;15.07;83.64
13705;BME280;6924;52.122;9.952;2023-05-06T09:56:40;100770.88;;;15.19;82.30
13705;BME280;6924;52.122;9.952;2023-05-06T09:59:09;100765.09;;;15.36;81.82
13705;BME280;6924;52.122;9.952;2023-05-06T10:01:36;100762.00;;;15.59;83.52
13705;BME280;6924;52.122;9.952;2023-05-06T10:04:07;100768.31;;;15.64;83.05
13705;BME280;6924;52.122;9.952;2023-05-06T10:06:35;100771.66;;;15.75;82.40
13705;BME280;6924;52.122;9.952;2023-05-06T10:09:04;100773.94;;;15.52;78.83
13705;BME280;6924;52.122;9.952;2023-05-06T10:11:31;100769.13;;;15.44;81.80
13705;BME280;6924;52.122;9.952;2023-05-06T10:14:00;100760.28;;;15.37;81.98
13705;BME280;6924;52.122;9.952;2023-05-06T10:16:27;100764.16;;;15.62;81.80
13705;BME280;6924;52.122;9.952;2023-05-06T10:18:54;100762.22;;;15.83;76.93
13705;BME280;6924;52.122;9.952;2023-05-06T10:21:24;100751.13;;;15.82;76.49
13705;BME280;6924;52.122;9.952;2023-05-06T10:23:56;100754.97;;;16.07;76.74
13705;BME280;6924;52.122;9.952;2023-05-06T10:26:28;100757.59;;;16.33;75.42
13705;BME280;6924;52.122;9.952;2023-05-06T10:28:55;100754.00;;;16.45;75.73
13705;BME280;6924;52.122;9.952;2023-05-06T10:31:23;100749.84;;;16.55;74.60
13705;BME280;6924;52.122;9.952;2023-05-06T10:33:53;100746.44;;;16.61;71.94
13705;BME280;6924;52.122;9.952;2023-05-06T10:36:21;100746.75;;;16.81;75.11
13705;BME280;6924;52.122;9.952;2023-05-06T10:38:51;100748.22;;;16.66;72.27
13705;BME280;6924;52.122;9.952;2023-05-06T10:41:20;100748.06;;;16.29;74.24
13705;BME280;6924;52.122;9.952;2023-05-06T10:43:48;100744.03;;;16.30;75.63
13705;BME280;6924;52.122;9.952;2023-05-06T10:46:22;100744.03;;;16.30;74.17
13705;BME280;6924;52.122;9.952;2023-05-06T10:49:14;100745.13;;;16.38;70.83
13705;BME280;6924;52.122;9.952;2023-05-06T10:51:41;100746.63;;;16.23;73.84
13705;BME280;6924;52.122;9.952;2023-05-06T10:54:08;100747.00;;;16.55;73.34
13705;BME280;6924;52.122;9.952;2023-05-06T10:56:36;100749.03;;;16.54;71.20
13705;BME280;6924;52.122;9.952;2023-05-06T10:59:05;100742.50;;;16.66;71.24
13705;BME280;6924;52.122;9.952;2023-05-06T11:01:37;100747.34;;;16.86;71.57
13705;BME280;6924;52.122;9.952;2023-05-06T11:04:06;100747.75;;;16.97;69.97
13705;BME280;6924;52.122;9.952;2023-05-06T11:06:35;100749.44;;;17.10;69.73
13705;BME280;6924;52.122;9.952;2023-05-06T11:09:03;100748.38;;;17.03;69.86
13705;BME280;6924;52.122;9.952;2023-05-06T11:11:46;100741.53;;;16.83;69.80
13705;BME280;6924;52.122;9.952;2023-05-06T11:14:14;100753.38;;;16.72;69.73
13705;BME280;6924;52.122;9.952;2023-05-06T11:16:52;100753.34;;;16.60;69.10
13705;BME280;6924;52.122;9.952;2023-05-06T11:19:20;100747.78;;;16.76;70.60
13705;BME280;6924;52.122;9.952;2023-05-06T11:21:47;100744.63;;;16.90;69.80
13705;BME280;6924;52.122;9.952;2023-05-06T11:24:14;100747.06;;;17.00;69.80
13705;BME280;6924;52.122;9.952;2023-05-06T11:26:46;100748.13;;;16.96;69.21
13705;BME280;6924;52.122;9.952;2023-05-06T11:29:14;100753.06;;;16.86;68.22
13705;BME280;6924;52.122;9.952;2023-05-06T11:31:42;100746.75;;;16.81;70.99
13705;BME280;6924;52.122;9.952;2023-05-06T11:34:12;100746.91;;;16.97;70.53
13705;BME280;6924;52.122;9.952;2023-05-06T11:36:51;100750.50;;;17.06;71.47
13705;BME280;6924;52.122;9.952;2023-05-06T11:39:18;100748.72;;;17.01;67.77
13705;BME280;6924;52.122;9.952;2023-05-06T11:41:45;100752.19;;;17.19;67.51
13705;BME280;6924;52.122;9.952;2023-05-06T11:44:22;100734.56;;;17.29;70.20
13705;BME280;6924;52.122;9.952;2023-05-06T11:46:49;100741.97;;;17.43;69.49
13705;BME280;6924;52.122;9.952;2023-05-06T11:49:17;100730.75;;;17.62;72.37
13705;BME280;6924;52.122;9.952;2023-05-06T11:51:43;100740.03;;;17.71;66.69
13705;BME280;6924;52.122;9.952;2023-05-06T11:54:10;100730.50;;;17.67;63.67
13705;BME280;6924;52.122;9.952;2023-05-06T11:56:47;100734.81;;;17.73;64.94
13705;BME280;6924;52.122;9.952;2023-05-06T11:59:14;100729.81;;;17.83;68.31
13705;BME280;6924;52.122;9.952;2023-05-06T12:01:41;100728.59;;;17.96;68.22
13705;BME280;6924;52.122;9.952;2023-05-06T12:04:09;100732.97;;;17.81;66.16
13705;BME280;6924;52.122;9.952;2023-05-06T12:06:37;100732.97;;;17.81;66.30
13705;BME280;6924;52.122;9.952;2023-05-06T12:09:05;100736.47;;;17.87;68.31
13705;BME280;6924;52.122;9.952;2023-05-06T12:11:33;100737.78;;;17.89;63.65
13705;BME280;6924;52.122;9.952;2023-05-06T12:14:01;100733.97;;;17.85;63.02
13705;BME280;6924;52.122;9.952;2023-05-06T12:16:28;100732.13;;;18.05;63.97
13705;BME280;6924;52.122;9.952;2023-05-06T12:18:54;100723.59;;;17.93;61.92
13705;BME280;6924;52.122;9.952;2023-05-06T12:21:21;100729.81;;;17.70;63.70
13705;BME280;6924;52.122;9.952;2023-05-06T12:23:54;100723.72;;;17.72;66.01
13705;BME280;6924;52.122;9.952;2023-05-06T12:26:21;100725.75;;;17.71;66.13
13705;BME280;6924;52.122;9.952;2023-05-06T12:29:03;100728.25;;;17.73;65.11
13705;BME280;6924;52.122;9.952;2023-05-06T12:31:31;100734.94;;;17.77;65.73
13705;BME280;6924;52.122;9.952;2023-05-06T12:33:57;100735.03;;;17.93;66.86
13705;BME280;6924;52.122;9.952;2023-05-06T12:36:24;100733.75;;;17.90;62.90
13705;BME280;6924;52.122;9.952;2023-05-06T12:38:52;100735.75;;;17.90;62.81
13705;BME280;6924;52.122;9.952;2023-05-06T12:41:20;100741.59;;;17.69;61.64
13705;BME280;6924;52.122;9.952;2023-05-06T12:43:46;100744.47;;;17.56;64.83
13705;BME280;6924;52.122;9.952;2023-05-06T12:46:14;100741.56;;;17.81;66.46
13705;BME280;6924;52.122;9.952;2023-05-06T12:48:54;100740.16;;;17.87;64.48
13705;BME280;6924;52.122;9.952;2023-05-06T12:51:21;100738.38;;;17.83;66.09
13705;BME280;6924;52.122;9.952;2023-05-06T12:53:47;100744.69;;;17.76;66.02
13705;BME280;6924;52.122;9.952;2023-05-06T12:56:15;100734.56;;;17.66;63.45